createdAt,value
2023-03-29T00:00:54.033Z,24.03
2023-03-29T00:03:24.114Z,23.99
2023-03-29T00:05:58.708Z,23.96
2023-03-29T00:08:35.203Z,23.88
2023-03-29T00:11:05.451Z,23.79
2023-03-29T00:13:35.619Z,23.69
2023-03-29T00:16:05.594Z,23.66
2023-03-29T00:18:35.397Z,23.63
2023-03-29T00:21:05.568Z,23.57
2023-03-29T00:23:36.313Z,23.55
2023-03-29T00:26:08.243Z,23.58
2023-03-29T00:28:38.442Z,23.61
2023-03-29T00:31:14.683Z,23.57
2023-03-29T00:33:45.533Z,23.52
2023-03-29T00:36:17.271Z,23.47
2023-03-29T00:38:47.359Z,23.44
2023-03-29T00:41:17.386Z,23.40
2023-03-29T00:44:03.337Z,23.40
2023-03-29T00:46:35.991Z,23.34
2023-03-29T00:49:16.541Z,23.31
2023-03-29T00:51:47.400Z,23.25
2023-03-29T00:54:19.973Z,23.21
2023-03-29T00:56:52.405Z,23.20
2023-03-29T00:59:25.725Z,23.17
2023-03-29T01:02:03.287Z,23.10
2023-03-29T01:04:52.038Z,23.07
2023-03-29T01:07:36.477Z,23.00
2023-03-29T01:10:13.183Z,22.92
2023-03-29T01:12:53.252Z,22.86
2023-03-29T01:15:27.650Z,22.76
2023-03-29T01:17:59.445Z,22.72
2023-03-29T01:20:44.546Z,22.73
2023-03-29T01:23:33.087Z,22.66
2023-03-29T01:26:22.964Z,22.62
2023-03-29T01:29:40.103Z,22.60
2023-03-29T01:32:51.630Z,22.57
2023-03-29T01:35:29.387Z,22.53
2023-03-29T01:38:06.732Z,22.49
2023-03-29T01:40:37.152Z,22.45
2023-03-29T01:43:23.838Z,22.43
2023-03-29T01:46:00.345Z,22.39
2023-03-29T01:48:39.448Z,22.32
2023-03-29T01:51:17.534Z,22.26
2023-03-29T01:53:54.187Z,22.22
2023-03-29T01:56:29.132Z,22.18
2023-03-29T01:59:08.896Z,22.18
2023-03-29T02:01:50.232Z,22.14
2023-03-29T02:04:30.211Z,22.02
2023-03-29T02:07:03.345Z,22.01
2023-03-29T02:09:35.484Z,22.02
2023-03-29T02:12:09.367Z,22.02
2023-03-29T02:14:40.104Z,21.95
2023-03-29T02:17:24.931Z,21.91
2023-03-29T02:20:01.926Z,21.90
2023-03-29T02:22:39.613Z,21.84
2023-03-29T02:25:10.670Z,21.81
2023-03-29T02:27:41.621Z,21.80
2023-03-29T02:30:14.851Z,21.83
2023-03-29T02:32:58.824Z,21.85
2023-03-29T02:35:37.474Z,21.91
2023-03-29T02:38:12.540Z,21.95
2023-03-29T02:40:45.139Z,21.95
2023-03-29T02:43:17.089Z,21.94
2023-03-29T02:45:49.241Z,21.94
2023-03-29T02:48:22.282Z,21.95
2023-03-29T02:50:56.628Z,21.98
2023-03-29T02:53:38.122Z,22.01
2023-03-29T02:56:09.383Z,21.97
2023-03-29T02:58:39.788Z,22.00
2023-03-29T03:01:11.668Z,21.98
2023-03-29T03:03:43.447Z,21.94
2023-03-29T03:06:14.698Z,21.90
2023-03-29T03:08:45.173Z,21.90
2023-03-29T03:11:16.447Z,21.91
2023-03-29T03:13:46.655Z,21.88
2023-03-29T03:16:16.789Z,21.90
2023-03-29T03:18:47.186Z,21.87
2023-03-29T03:21:17.164Z,21.90
2023-03-29T03:23:48.464Z,21.85
2023-03-29T03:26:19.331Z,21.88
2023-03-29T03:28:49.582Z,21.84
2023-03-29T03:31:42.348Z,21.83
2023-03-29T03:34:15.462Z,21.81
2023-03-29T03:37:02.802Z,21.75
2023-03-29T03:39:35.814Z,21.73
2023-03-29T03:42:08.467Z,21.67
2023-03-29T03:44:45.140Z,21.63
2023-03-29T03:47:47.595Z,21.57
2023-03-29T03:50:40.951Z,21.51
2023-03-29T03:53:11.128Z,21.47
2023-03-29T03:56:04.039Z,21.43
2023-03-29T03:58:37.700Z,21.44
2023-03-29T04:01:09.821Z,21.40
2023-03-29T04:03:50.865Z,21.42
2023-03-29T04:06:21.435Z,21.36
2023-03-29T04:09:10.444Z,21.32
2023-03-29T04:11:44.445Z,21.29
2023-03-29T04:14:17.415Z,21.29
2023-03-29T04:17:06.844Z,21.25
2023-03-29T04:20:18.120Z,21.22
2023-03-29T04:22:48.084Z,21.20
2023-03-29T04:25:18.841Z,21.16
2023-03-29T04:27:52.406Z,21.15
2023-03-29T04:30:41.017Z,21.12
2023-03-29T04:33:18.602Z,21.12
2023-03-29T04:35:54.679Z,21.06
2023-03-29T04:38:24.874Z,21.06
2023-03-29T04:40:57.410Z,21.05
2023-03-29T04:43:40.546Z,21.03
2023-03-29T04:46:17.546Z,21.03
2023-03-29T04:49:08.857Z,21.02
2023-03-29T04:51:45.120Z,20.98
2023-03-29T04:54:15.950Z,20.99
2023-03-29T04:57:09.829Z,20.98
2023-03-29T05:00:15.573Z,20.92
2023-03-29T05:03:06.451Z,20.91
2023-03-29T05:05:40.565Z,20.86
2023-03-29T05:08:10.680Z,20.85
2023-03-29T05:10:55.174Z,20.89
2023-03-29T05:13:25.350Z,20.86
2023-03-29T05:15:54.947Z,20.89
2023-03-29T05:18:24.751Z,20.88
2023-03-29T05:20:55.272Z,20.86
2023-03-29T05:23:26.298Z,20.88
2023-03-29T05:26:16.443Z,20.86
2023-03-29T05:28:53.460Z,20.91
2023-03-29T05:31:24.903Z,20.89
2023-03-29T05:33:57.297Z,20.91
2023-03-29T05:36:30.315Z,20.89
2023-03-29T05:39:01.286Z,20.88
2023-03-29T05:41:32.255Z,20.86
2023-03-29T05:44:02.834Z,20.85
2023-03-29T05:46:33.800Z,20.82
2023-03-29T05:49:06.020Z,20.85
2023-03-29T05:51:53.123Z,20.82
2023-03-29T05:54:22.949Z,20.82
2023-03-29T05:56:52.955Z,20.78
2023-03-29T05:59:24.807Z,20.79
2023-03-29T06:01:55.687Z,20.84
2023-03-29T06:04:26.534Z,20.84
2023-03-29T06:07:24.540Z,20.79
2023-03-29T06:10:13.357Z,20.78
2023-03-29T06:12:47.989Z,20.81
2023-03-29T06:15:18.834Z,20.81
2023-03-29T06:17:52.602Z,20.81
2023-03-29T06:20:22.720Z,20.79
2023-03-29T06:22:58.116Z,20.78
2023-03-29T06:25:27.975Z,20.78
2023-03-29T06:27:57.583Z,20.72
2023-03-29T06:30:27.212Z,20.69
2023-03-29T06:33:03.039Z,20.71
2023-03-29T06:36:02.173Z,20.65
2023-03-29T06:38:33.335Z,20.63
2023-03-29T06:41:35.969Z,20.63
2023-03-29T06:44:08.694Z,20.61
2023-03-29T06:46:57.858Z,20.61
2023-03-29T06:49:28.150Z,20.57
2023-03-29T06:52:20.977Z,20.55
2023-03-29T06:54:52.457Z,20.54
2023-03-29T06:57:22.569Z,20.52
2023-03-29T06:59:52.533Z,20.51
2023-03-29T07:02:26.354Z,20.49
2023-03-29T07:04:59.289Z,20.48
2023-03-29T07:07:45.170Z,20.48
2023-03-29T07:10:29.398Z,20.48
2023-03-29T07:13:17.354Z,20.40
2023-03-29T07:15:47.663Z,20.34
2023-03-29T07:18:35.979Z,20.37
2023-03-29T07:21:07.107Z,20.35
2023-03-29T07:23:37.301Z,20.33
2023-03-29T07:26:12.249Z,20.31
2023-03-29T07:28:42.522Z,20.34
2023-03-29T07:31:14.534Z,20.28
2023-03-29T07:33:53.694Z,20.27
2023-03-29T07:36:23.994Z,20.18
2023-03-29T07:38:55.894Z,20.18
2023-03-29T07:41:27.571Z,20.23
2023-03-29T07:44:11.505Z,20.17
2023-03-29T07:46:41.464Z,20.14
2023-03-29T07:49:11.417Z,20.17
2023-03-29T07:51:41.177Z,20.14
2023-03-29T07:54:15.873Z,20.16
2023-03-29T07:57:09.394Z,20.13
2023-03-29T07:59:45.096Z,20.12
2023-03-29T08:02:23.373Z,20.10
2023-03-29T08:04:57.980Z,20.07
2023-03-29T08:07:48.670Z,20.09
2023-03-29T08:10:27.891Z,20.07
2023-03-29T08:13:00.368Z,20.12
2023-03-29T08:15:43.256Z,20.14
2023-03-29T08:18:21.912Z,20.17
2023-03-29T08:20:52.984Z,20.17
2023-03-29T08:23:22.871Z,20.18
2023-03-29T08:26:30.838Z,20.17
2023-03-29T08:29:02.209Z,20.17
2023-03-29T08:31:32.377Z,20.18
2023-03-29T08:34:02.937Z,20.20
2023-03-29T08:36:54.227Z,20.17
2023-03-29T08:39:34.851Z,20.17
2023-03-29T08:42:43.560Z,20.18
2023-03-29T08:45:40.763Z,20.17
2023-03-29T08:48:28.058Z,20.17
2023-03-29T08:51:05.204Z,20.17
2023-03-29T08:54:02.549Z,20.14
2023-03-29T08:57:16.849Z,20.14
2023-03-29T08:59:55.236Z,20.14
2023-03-29T09:02:29.118Z,20.07
2023-03-29T09:05:11.244Z,20.09
2023-03-29T09:07:59.971Z,20.06
2023-03-29T09:10:42.533Z,20.07
2023-03-29T09:14:05.096Z,20.13
2023-03-29T09:16:45.875Z,20.12
2023-03-29T09:19:24.387Z,20.07
2023-03-29T09:22:01.799Z,20.10
2023-03-29T09:24:59.357Z,20.12
2023-03-29T09:27:34.332Z,20.10
2023-03-29T09:30:30.869Z,20.12
2023-03-29T09:33:14.097Z,20.09
2023-03-29T09:36:04.619Z,20.05
2023-03-29T09:38:42.067Z,20.07
2023-03-29T09:41:28.499Z,20.12
2023-03-29T09:44:02.104Z,20.05
2023-03-29T09:46:46.519Z,20.05
2023-03-29T09:49:22.303Z,20.06
2023-03-29T09:51:52.516Z,20.09
2023-03-29T09:54:23.420Z,20.12
2023-03-29T09:57:30.532Z,20.17
2023-03-29T10:00:06.815Z,20.18
2023-03-29T10:02:43.112Z,20.21
2023-03-29T10:05:19.189Z,20.27
2023-03-29T10:07:59.475Z,20.30
2023-03-29T10:10:33.520Z,20.35
2023-03-29T10:13:09.056Z,20.40
2023-03-29T10:15:39.033Z,20.44
2023-03-29T10:18:14.228Z,20.52
2023-03-29T10:20:44.186Z,20.58
2023-03-29T10:23:20.223Z,20.71
2023-03-29T10:25:50.992Z,20.72
2023-03-29T10:28:24.106Z,20.81
2023-03-29T10:30:59.527Z,20.92
2023-03-29T10:33:35.102Z,21.19
2023-03-29T10:36:08.556Z,21.61
2023-03-29T10:38:39.496Z,22.04
2023-03-29T10:41:14.143Z,22.38
2023-03-29T10:43:50.655Z,22.90
2023-03-29T10:46:29.887Z,23.42
2023-03-29T10:49:07.195Z,23.79
2023-03-29T10:51:37.828Z,23.93
2023-03-29T10:54:12.908Z,24.13
2023-03-29T10:56:53.786Z,24.19
2023-03-29T10:59:38.190Z,24.23
2023-03-29T11:02:18.214Z,24.27
2023-03-29T11:04:53.722Z,24.49
2023-03-29T11:07:48.165Z,24.65
2023-03-29T11:10:48.780Z,25.08
2023-03-29T11:13:29.070Z,25.08
2023-03-29T11:16:13.988Z,25.46
2023-03-29T11:19:10.783Z,25.65
2023-03-29T11:21:45.826Z,25.87
2023-03-29T11:24:42.891Z,26.05
2023-03-29T11:27:30.008Z,26.29
2023-03-29T11:30:21.838Z,26.51
2023-03-29T11:32:54.731Z,27.10
2023-03-29T11:35:27.175Z,27.62
2023-03-29T11:38:24.307Z,27.62
2023-03-29T11:41:19.798Z,28.22
2023-03-29T11:43:56.174Z,28.71
2023-03-29T11:46:32.664Z,28.77
2023-03-29T11:49:24.481Z,28.88
2023-03-29T11:51:59.990Z,29.15
2023-03-29T11:54:45.896Z,29.15
2023-03-29T11:57:37.100Z,29.10
2023-03-29T12:00:13.507Z,29.31
2023-03-29T12:02:48.875Z,29.82
2023-03-29T12:05:34.525Z,30.16
2023-03-29T12:08:18.024Z,30.13
2023-03-29T12:10:57.804Z,30.79
2023-03-29T12:13:48.226Z,31.19
2023-03-29T12:16:28.321Z,31.37
2023-03-29T12:19:01.572Z,31.80
2023-03-29T12:21:33.563Z,31.90
2023-03-29T12:24:04.242Z,31.44
2023-03-29T12:26:52.929Z,31.76
2023-03-29T12:29:44.988Z,32.09
2023-03-29T12:32:50.151Z,32.22
2023-03-29T12:35:40.609Z,32.29
2023-03-29T12:38:30.495Z,33.13
2023-03-29T12:41:25.195Z,33.75
2023-03-29T12:44:16.344Z,33.99
2023-03-29T12:47:04.463Z,34.19
2023-03-29T12:49:39.652Z,34.52
2023-03-29T12:52:36.983Z,35.07
2023-03-29T12:55:24.802Z,34.98
2023-03-29T12:58:07.951Z,35.18
2023-03-29T13:00:46.138Z,35.15
2023-03-29T13:03:33.632Z,35.63
2023-03-29T13:06:06.486Z,35.53
2023-03-29T13:08:41.690Z,35.75
2023-03-29T13:11:30.429Z,36.00
2023-03-29T13:14:03.366Z,35.18
2023-03-29T13:16:36.296Z,35.15
2023-03-29T13:19:33.242Z,34.87
2023-03-29T13:22:03.419Z,35.48
2023-03-29T13:24:35.838Z,35.53
2023-03-29T13:27:40.706Z,36.24
2023-03-29T13:30:28.978Z,36.34
2023-03-29T13:33:40.854Z,36.02
2023-03-29T13:36:25.198Z,36.68
2023-03-29T13:38:57.518Z,36.16
2023-03-29T13:41:40.031Z,35.12
2023-03-29T13:44:47.427Z,36.33
2023-03-29T13:47:39.947Z,36.47
2023-03-29T13:59:22.197Z,33.51
2023-03-29T14:01:59.840Z,34.76
2023-03-29T14:04:35.717Z,34.40
2023-03-29T14:07:08.205Z,34.01
2023-03-29T14:09:50.917Z,33.76
2023-03-29T14:12:21.792Z,33.65
2023-03-29T14:14:59.190Z,33.85
2023-03-29T14:17:30.206Z,33.76
2023-03-29T14:20:06.023Z,33.72
2023-03-29T14:22:36.151Z,35.04
2023-03-29T14:25:16.632Z,35.66
2023-03-29T14:27:47.283Z,36.43
2023-03-29T14:30:29.025Z,36.78
2023-03-29T14:32:58.891Z,38.17
2023-03-29T14:35:32.546Z,37.94
2023-03-29T14:38:03.436Z,37.19
2023-03-29T14:40:34.906Z,35.90
2023-03-29T14:43:09.387Z,34.94
2023-03-29T14:45:39.612Z,34.23
2023-03-29T14:48:13.707Z,33.88
2023-03-29T14:50:45.225Z,33.94
2023-03-29T14:53:23.364Z,36.60
2023-03-29T14:55:54.959Z,37.77
2023-03-29T14:58:47.738Z,38.75
2023-03-29T15:01:23.371Z,37.15
2023-03-29T15:04:10.284Z,36.04
2023-03-29T15:06:42.863Z,37.77
2023-03-29T15:09:22.032Z,38.38
2023-03-29T15:11:57.363Z,38.99
2023-03-29T15:14:29.932Z,39.84
2023-03-29T15:17:05.424Z,40.23
2023-03-29T15:19:35.665Z,40.15
2023-03-29T15:22:12.264Z,40.13
2023-03-29T15:24:49.387Z,40.87
2023-03-29T15:27:22.191Z,39.13
2023-03-29T15:30:03.760Z,37.19
2023-03-29T15:32:38.298Z,35.99
2023-03-29T15:35:11.708Z,35.21
2023-03-29T15:37:41.998Z,34.47
2023-03-29T15:40:18.444Z,34.16
2023-03-29T15:42:48.295Z,33.68
2023-03-29T15:45:20.334Z,33.30
2023-03-29T15:47:50.593Z,32.93
2023-03-29T15:50:20.404Z,32.33
2023-03-29T15:52:50.024Z,31.82
2023-03-29T15:55:19.876Z,31.50
2023-03-29T15:57:50.644Z,31.22
2023-03-29T16:00:23.627Z,30.83
2023-03-29T16:02:53.941Z,30.47
2023-03-29T16:05:23.779Z,30.60
2023-03-29T16:07:53.361Z,30.41
2023-03-29T16:10:23.416Z,30.55
2023-03-29T16:12:53.186Z,30.51
2023-03-29T16:15:25.333Z,30.44
2023-03-29T16:17:55.347Z,30.40
2023-03-29T16:20:25.391Z,30.62
2023-03-29T16:22:55.386Z,30.69
2023-03-29T16:25:25.745Z,31.03
2023-03-29T16:27:55.651Z,32.09
2023-03-29T16:30:26.081Z,33.08
2023-03-29T16:32:56.092Z,34.37
2023-03-29T16:35:33.241Z,35.55
2023-03-29T16:38:03.334Z,34.71
2023-03-29T16:40:35.335Z,35.48
2023-03-29T16:43:05.863Z,37.23
2023-03-29T16:45:35.696Z,36.71
2023-03-29T16:48:06.197Z,36.40
2023-03-29T16:50:36.245Z,36.81
2023-03-29T16:53:06.087Z,35.08
2023-03-29T16:55:36.132Z,34.09
2023-03-29T16:58:07.976Z,33.02
2023-03-29T17:00:37.806Z,31.23
2023-03-29T17:03:07.944Z,30.48
2023-03-29T17:05:43.376Z,29.93
2023-03-29T17:08:13.121Z,29.10
2023-03-29T17:10:43.533Z,28.37
2023-03-29T17:13:14.270Z,27.68
2023-03-29T17:15:44.337Z,27.30
2023-03-29T17:18:15.246Z,26.87
2023-03-29T17:20:45.321Z,26.44
2023-03-29T17:23:15.238Z,26.27
2023-03-29T17:25:45.128Z,26.21
2023-03-29T17:28:15.322Z,26.11
2023-03-29T17:30:47.466Z,25.45
2023-03-29T17:33:19.147Z,24.91
2023-03-29T17:39:30.030Z,23.35
2023-03-29T17:41:59.989Z,23.03
2023-03-29T17:44:29.619Z,22.28
2023-03-29T17:46:59.286Z,21.33
2023-03-29T17:49:29.132Z,21.36
2023-03-29T17:51:58.991Z,21.16
2023-03-29T17:54:28.884Z,21.36
2023-03-29T17:56:58.510Z,20.95
2023-03-29T17:59:28.310Z,20.91
2023-03-29T18:01:58.564Z,20.78
2023-03-29T18:04:28.373Z,20.84
2023-03-29T18:06:58.156Z,20.79
2023-03-29T18:09:30.702Z,20.76
2023-03-29T18:12:00.871Z,20.75
2023-03-29T18:14:30.554Z,20.82
2023-03-29T18:17:00.358Z,20.71
2023-03-29T18:19:30.121Z,20.59
2023-03-29T18:21:59.982Z,20.75
2023-03-29T18:24:29.607Z,20.98
2023-03-29T18:26:59.433Z,21.10
2023-03-29T18:29:29.343Z,20.99
2023-03-29T18:32:03.824Z,21.29
2023-03-29T18:34:34.533Z,21.49
2023-03-29T18:37:05.118Z,21.61
2023-03-29T18:39:35.793Z,21.40
2023-03-29T18:42:05.697Z,21.15
2023-03-29T18:44:35.496Z,20.91
2023-03-29T18:47:05.388Z,20.92
2023-03-29T18:49:35.481Z,20.92
2023-03-29T18:52:06.927Z,21.30
2023-03-29T18:54:36.905Z,22.05
2023-03-29T18:57:06.849Z,22.01
2023-03-29T18:59:37.719Z,22.26
2023-03-29T19:02:08.097Z,22.14
2023-03-29T19:04:38.825Z,22.42
2023-03-29T19:07:10.072Z,22.33
2023-03-29T19:09:39.868Z,22.29
2023-03-29T19:12:09.983Z,22.55
2023-03-29T19:14:39.820Z,22.94
2023-03-29T19:17:09.632Z,23.28
2023-03-29T19:19:41.230Z,23.48
2023-03-29T19:22:10.883Z,24.09
2023-03-29T19:24:41.291Z,24.40
2023-03-29T19:27:12.673Z,24.27
2023-03-29T19:29:42.867Z,24.41
2023-03-29T19:32:12.699Z,24.36
2023-03-29T19:34:42.602Z,24.40
2023-03-29T19:37:12.844Z,24.44
2023-03-29T19:39:42.702Z,24.60
2023-03-29T19:42:12.770Z,24.65
2023-03-29T19:44:43.664Z,24.72
2023-03-29T19:47:13.590Z,24.80
2023-03-29T19:49:44.269Z,24.71
2023-03-29T19:52:14.319Z,24.41
2023-03-29T19:54:43.954Z,24.17
2023-03-29T19:57:13.634Z,24.12
2023-03-29T19:59:44.223Z,24.17
2023-03-29T20:02:14.428Z,24.30
2023-03-29T20:04:44.448Z,24.34
2023-03-29T20:07:14.217Z,24.30
2023-03-29T20:09:45.301Z,24.03
2023-03-29T20:12:15.292Z,23.95
2023-03-29T20:14:44.910Z,23.96
2023-03-29T20:17:14.689Z,23.93
2023-03-29T20:19:46.232Z,23.93
2023-03-29T20:22:16.045Z,23.98
2023-03-29T20:24:46.597Z,24.05
2023-03-29T20:27:16.957Z,24.12
2023-03-29T20:29:47.054Z,23.93
2023-03-29T20:32:17.400Z,23.71
2023-03-29T20:34:47.380Z,23.65
2023-03-29T20:37:16.958Z,23.55
2023-03-29T20:39:46.744Z,23.59
2023-03-29T20:42:16.998Z,23.52
2023-03-29T20:44:51.691Z,23.41
2023-03-29T20:47:22.357Z,23.31
2023-03-29T20:49:55.380Z,23.37
2023-03-29T20:52:26.159Z,23.34
2023-03-29T20:54:56.043Z,23.28
2023-03-29T20:57:27.117Z,23.18
2023-03-29T20:59:57.940Z,22.99
2023-03-29T21:02:28.531Z,23.00
2023-03-29T21:05:01.484Z,23.11
2023-03-29T21:07:31.608Z,23.11
2023-03-29T21:10:02.287Z,22.94
2023-03-29T21:12:32.645Z,22.35
2023-03-29T21:15:03.571Z,22.09
2023-03-29T21:17:33.467Z,22.28
2023-03-29T21:20:03.956Z,22.51
2023-03-29T21:22:35.291Z,22.56
2023-03-29T21:25:05.526Z,22.51
2023-03-29T21:34:58.128Z,22.59
2023-03-29T21:37:34.380Z,22.52
2023-03-29T21:40:08.113Z,22.35
2023-03-29T21:42:38.346Z,22.25
2023-03-29T21:45:08.742Z,22.14
2023-03-29T21:47:38.833Z,22.18
2023-03-29T21:50:09.230Z,22.21
2023-03-29T21:52:39.315Z,22.19
2023-03-29T21:55:09.898Z,22.14
2023-03-29T21:57:39.894Z,22.22
2023-03-29T22:00:12.356Z,22.24
2023-03-29T22:02:43.643Z,22.21
2023-03-29T22:05:14.025Z,22.08
2023-03-29T22:07:44.088Z,21.77
2023-03-29T22:10:14.420Z,21.61
2023-03-29T22:12:44.801Z,21.84
2023-03-29T22:15:14.933Z,21.98
2023-03-29T22:17:44.876Z,21.88
2023-03-29T22:20:15.752Z,21.75
2023-03-29T22:22:53.292Z,21.60
2023-03-29T22:25:24.404Z,21.63
2023-03-29T22:27:54.425Z,21.65
2023-03-29T22:30:24.441Z,21.64
2023-03-29T22:32:54.350Z,21.63
2023-03-29T22:35:24.711Z,21.53
2023-03-29T22:37:54.749Z,21.50
2023-03-29T22:40:24.628Z,21.44
2023-03-29T22:42:54.225Z,21.18
2023-03-29T22:45:23.834Z,20.96
2023-03-29T22:47:54.028Z,20.88
2023-03-29T22:50:24.113Z,20.95
2023-03-29T22:52:53.729Z,21.10
2023-03-29T22:55:23.506Z,21.47
2023-03-29T22:57:53.886Z,21.65
2023-03-29T23:00:24.237Z,21.63
2023-03-29T23:02:54.228Z,21.39
2023-03-29T23:05:23.880Z,21.19
2023-03-29T23:07:53.736Z,21.07
2023-03-29T23:10:23.468Z,20.99
2023-03-29T23:12:53.215Z,20.98
2023-03-29T23:15:23.988Z,20.84
2023-03-29T23:17:57.499Z,20.91
2023-03-29T23:20:27.374Z,20.88
2023-03-29T23:22:57.453Z,20.75
2023-03-29T23:25:27.895Z,20.76
2023-03-29T23:27:58.600Z,20.85
2023-03-29T23:30:29.159Z,20.71
2023-03-29T23:33:01.246Z,20.54
2023-03-29T23:35:30.865Z,20.40
2023-03-29T23:38:00.968Z,20.43
2023-03-29T23:40:30.844Z,20.41
2023-03-29T23:43:00.563Z,20.45
2023-03-29T23:45:30.455Z,20.52
2023-03-29T23:48:00.281Z,20.54
2023-03-29T23:50:31.122Z,20.54
2023-03-29T23:53:00.912Z,20.55
2023-03-29T23:55:30.692Z,20.58
2023-03-29T23:58:00.645Z,20.57
